createdAt,value
2023-07-17T00:01:39.441Z,2.70
2023-07-17T00:04:06.924Z,3.23
2023-07-17T00:06:34.322Z,3.00
2023-07-17T00:09:01.719Z,3.40
2023-07-17T00:11:29.430Z,3.17
2023-07-17T00:13:56.915Z,2.93
2023-07-17T00:16:24.351Z,3.10
2023-07-17T00:18:51.855Z,3.20
2023-07-17T00:21:20.442Z,2.80
2023-07-17T00:23:48.843Z,3.40
2023-07-17T00:26:16.376Z,3.20
2023-07-17T00:28:44.028Z,2.97
2023-07-17T00:31:11.427Z,2.73
2023-07-17T00:33:38.839Z,3.60
2023-07-17T00:36:06.447Z,3.37
2023-07-17T00:38:33.908Z,3.20
2023-07-17T00:41:01.287Z,2.90
2023-07-17T00:43:28.716Z,3.33
2023-07-17T00:45:58.639Z,3.30
2023-07-17T00:48:26.256Z,3.27
2023-07-17T00:50:53.810Z,2.93
2023-07-17T00:53:21.201Z,3.37
2023-07-17T00:55:48.750Z,3.20
2023-07-17T00:58:18.946Z,3.33
2023-07-17T01:00:46.812Z,3.10
2023-07-17T01:03:15.646Z,3.30
2023-07-17T01:05:43.065Z,3.13
2023-07-17T01:08:10.641Z,3.00
2023-07-17T01:10:38.207Z,2.90
2023-07-17T01:13:05.722Z,3.30
2023-07-17T01:15:33.128Z,3.27
2023-07-17T01:18:00.617Z,3.40
2023-07-17T01:20:29.058Z,3.40
2023-07-17T01:23:06.216Z,3.30
2023-07-17T01:25:34.571Z,3.80
2023-07-17T01:28:05.724Z,3.37
2023-07-17T01:30:33.166Z,3.50
2023-07-17T01:33:00.712Z,3.30
2023-07-17T01:35:28.106Z,2.90
2023-07-17T01:37:55.536Z,3.77
2023-07-17T01:40:22.883Z,3.10
2023-07-17T01:42:50.315Z,3.30
2023-07-17T01:45:17.926Z,3.40
2023-07-17T01:47:45.492Z,3.03
2023-07-17T01:50:13.244Z,3.30
2023-07-17T01:52:40.674Z,3.27
2023-07-17T01:55:08.797Z,3.27
2023-07-17T01:57:36.278Z,3.20
2023-07-17T02:00:04.137Z,3.33
2023-07-17T02:02:40.789Z,3.53
2023-07-17T02:05:09.320Z,3.63
2023-07-17T02:07:36.810Z,3.37
2023-07-17T02:10:08.625Z,3.77
2023-07-17T02:12:36.294Z,3.63
2023-07-17T02:15:04.108Z,3.70
2023-07-17T02:17:35.670Z,3.90
2023-07-17T02:20:03.170Z,3.40
2023-07-17T02:22:30.653Z,3.40
2023-07-17T02:24:58.988Z,4.10
2023-07-17T02:27:26.734Z,3.27
2023-07-17T02:29:55.262Z,3.67
2023-07-17T02:32:22.669Z,3.90
2023-07-17T02:34:50.184Z,3.77
2023-07-17T02:37:17.544Z,3.50
2023-07-17T02:39:44.911Z,3.50
2023-07-17T02:42:12.288Z,3.70
2023-07-17T02:44:39.674Z,3.40
2023-07-17T02:47:07.275Z,3.60
2023-07-17T02:49:34.705Z,3.90
2023-07-17T02:52:02.212Z,3.80
2023-07-17T02:54:29.686Z,3.30
2023-07-17T02:56:57.171Z,3.43
2023-07-17T02:59:24.716Z,3.33
2023-07-17T03:01:52.902Z,4.37
2023-07-17T03:04:20.425Z,3.87
2023-07-17T03:06:49.050Z,4.00
2023-07-17T03:09:16.475Z,3.30
2023-07-17T03:11:44.044Z,3.37
2023-07-17T03:14:11.408Z,3.10
2023-07-17T03:16:39.129Z,3.10
2023-07-17T03:19:06.651Z,3.30
2023-07-17T03:21:36.976Z,3.90
2023-07-17T03:24:06.548Z,3.57
2023-07-17T03:26:34.103Z,3.83
2023-07-17T03:29:01.687Z,3.17
2023-07-17T03:31:29.170Z,3.07
2023-07-17T03:33:56.974Z,3.10
2023-07-17T03:36:27.930Z,3.37
2023-07-17T03:38:55.365Z,3.70
2023-07-17T03:41:22.941Z,3.60
2023-07-17T03:43:50.412Z,3.33
2023-07-17T03:46:19.224Z,3.70
2023-07-17T03:48:46.637Z,3.47
2023-07-17T03:51:14.126Z,3.33
2023-07-17T03:53:42.456Z,3.10
2023-07-17T03:56:10.406Z,3.83
2023-07-17T03:58:38.507Z,3.67
2023-07-17T04:01:06.924Z,3.57
2023-07-17T04:03:41.013Z,4.07
2023-07-17T04:06:12.554Z,3.60
2023-07-17T04:08:40.885Z,3.40
2023-07-17T04:11:08.830Z,3.20
2023-07-17T04:13:36.316Z,3.50
2023-07-17T04:16:04.264Z,3.70
2023-07-17T04:18:32.153Z,3.93
2023-07-17T04:21:01.095Z,3.60
2023-07-17T04:23:28.618Z,4.10
2023-07-17T04:25:59.353Z,3.70
2023-07-17T04:28:26.921Z,3.83
2023-07-17T04:30:56.181Z,3.97
2023-07-17T04:33:23.598Z,4.50
2023-07-17T04:35:51.639Z,4.10
2023-07-17T04:38:20.768Z,4.63
2023-07-17T04:40:48.348Z,4.40
2023-07-17T04:43:15.758Z,4.57
2023-07-17T04:45:44.398Z,4.57
2023-07-17T04:48:19.974Z,4.10
2023-07-17T04:50:48.299Z,4.50
2023-07-17T04:53:16.564Z,4.23
2023-07-17T04:55:44.164Z,4.30
2023-07-17T04:58:11.668Z,4.23
2023-07-17T05:00:40.881Z,4.77
2023-07-17T05:03:09.239Z,4.00
2023-07-17T05:05:36.763Z,4.37
2023-07-17T05:08:04.870Z,4.20
2023-07-17T05:10:32.275Z,3.70
2023-07-17T05:13:01.447Z,4.00
2023-07-17T05:15:29.061Z,3.50
2023-07-17T05:17:57.171Z,4.00
2023-07-17T05:20:26.230Z,4.20
2023-07-17T05:22:53.814Z,4.23
2023-07-17T05:25:22.316Z,4.00
2023-07-17T05:27:49.847Z,3.73
2023-07-17T05:30:17.634Z,4.20
2023-07-17T05:32:45.067Z,4.00
2023-07-17T05:35:12.697Z,4.10
2023-07-17T05:37:40.782Z,4.80
2023-07-17T05:40:10.180Z,4.20
2023-07-17T05:42:38.438Z,3.80
2023-07-17T05:45:07.255Z,3.83
2023-07-17T05:47:35.058Z,4.20
2023-07-17T05:50:02.516Z,4.10
2023-07-17T05:52:29.995Z,4.07
2023-07-17T05:54:58.611Z,4.23
2023-07-17T05:57:29.131Z,3.90
2023-07-17T05:59:56.782Z,3.57
2023-07-17T06:02:24.262Z,4.30
2023-07-17T06:04:51.920Z,4.50
2023-07-17T06:07:19.457Z,4.07
2023-07-17T06:09:46.933Z,4.00
2023-07-17T06:12:14.428Z,3.70
2023-07-17T06:14:42.086Z,3.83
2023-07-17T06:17:09.582Z,4.20
2023-07-17T06:19:37.041Z,4.07
2023-07-17T06:22:04.832Z,3.53
2023-07-17T06:24:32.207Z,4.30
2023-07-17T06:27:01.073Z,4.03
2023-07-17T06:29:28.738Z,3.97
2023-07-17T06:31:56.345Z,4.10
2023-07-17T06:34:23.756Z,3.77
2023-07-17T06:36:52.122Z,3.87
2023-07-17T06:39:20.991Z,3.40
2023-07-17T06:41:48.750Z,3.60
2023-07-17T06:44:17.335Z,3.70
2023-07-17T06:46:44.913Z,4.07
2023-07-17T06:49:12.453Z,3.70
2023-07-17T06:51:39.869Z,3.97
2023-07-17T06:54:07.258Z,3.40
2023-07-17T06:56:34.819Z,3.63
2023-07-17T06:59:02.384Z,4.27
2023-07-17T07:01:29.809Z,3.57
2023-07-17T07:03:57.318Z,3.37
2023-07-17T07:06:24.792Z,3.50
2023-07-17T07:08:52.213Z,3.67
2023-07-17T07:11:19.594Z,3.53
2023-07-17T07:13:47.344Z,3.47
2023-07-17T07:16:14.919Z,3.53
2023-07-17T07:18:42.415Z,3.70
2023-07-17T07:21:10.125Z,3.40
2023-07-17T07:23:37.549Z,3.20
2023-07-17T07:26:05.129Z,3.73
2023-07-17T07:28:32.600Z,3.17
2023-07-17T07:31:01.615Z,3.07
2023-07-17T07:33:30.049Z,3.10
2023-07-17T07:35:57.560Z,3.40
2023-07-17T07:38:25.090Z,3.00
2023-07-17T07:40:52.593Z,3.17
2023-07-17T07:43:19.988Z,2.90
2023-07-17T07:45:47.421Z,2.97
2023-07-17T07:48:15.043Z,4.07
2023-07-17T07:50:42.438Z,2.90
2023-07-17T07:53:09.908Z,2.70
2023-07-17T07:55:37.406Z,3.00
2023-07-17T07:58:04.991Z,2.67
2023-07-17T08:00:32.609Z,2.80
2023-07-17T08:03:00.125Z,2.93
2023-07-17T08:05:27.733Z,3.20
2023-07-17T08:07:55.193Z,3.10
2023-07-17T08:10:24.282Z,3.10
2023-07-17T08:12:51.770Z,2.90
2023-07-17T08:15:19.417Z,3.30
2023-07-17T08:17:47.008Z,3.50
2023-07-17T08:20:14.694Z,2.90
2023-07-17T08:22:42.195Z,3.10
2023-07-17T08:25:09.767Z,3.90
2023-07-17T08:27:37.026Z,3.20
2023-07-17T08:30:05.715Z,2.97
2023-07-17T08:32:34.272Z,2.70
2023-07-17T08:35:01.504Z,3.10
2023-07-17T08:37:28.752Z,3.27
2023-07-17T08:39:56.089Z,3.10
2023-07-17T08:42:23.222Z,3.07
2023-07-17T08:44:52.378Z,3.03
2023-07-17T08:47:20.316Z,2.90
2023-07-17T08:49:49.911Z,3.20
2023-07-17T08:52:18.623Z,2.73
2023-07-17T08:54:45.895Z,2.43
2023-07-17T08:57:13.918Z,2.90
2023-07-17T08:59:41.534Z,2.77
2023-07-17T09:02:09.282Z,2.70
2023-07-17T09:04:37.126Z,2.43
2023-07-17T09:07:04.690Z,2.63
2023-07-17T09:09:31.962Z,2.60
2023-07-17T09:12:19.492Z,2.90
2023-07-17T09:14:49.664Z,2.60
2023-07-17T09:17:16.824Z,2.77
2023-07-17T09:19:44.270Z,2.60
2023-07-17T09:22:17.149Z,2.50
2023-07-17T09:24:44.397Z,2.90
2023-07-17T09:27:11.719Z,2.60
2023-07-17T09:29:43.167Z,2.33
2023-07-17T09:32:23.384Z,2.60
2023-07-17T09:34:53.863Z,2.67
2023-07-17T09:37:21.404Z,2.70
2023-07-17T09:39:53.393Z,2.20
2023-07-17T09:42:24.452Z,2.47
2023-07-17T09:44:54.883Z,2.40
2023-07-17T09:47:22.584Z,2.60
2023-07-17T09:49:51.775Z,2.33
2023-07-17T09:52:19.713Z,2.23
2023-07-17T09:54:47.489Z,2.10
2023-07-17T09:57:29.937Z,2.10
2023-07-17T10:00:13.082Z,2.00
2023-07-17T10:03:18.587Z,2.20
2023-07-17T10:05:47.240Z,1.97
2023-07-17T10:08:17.033Z,1.90
2023-07-17T10:10:44.392Z,2.00
2023-07-17T10:13:12.636Z,2.10
2023-07-17T10:15:40.214Z,2.07
2023-07-17T10:18:12.972Z,2.30
2023-07-17T10:20:40.675Z,1.73
2023-07-17T10:23:25.255Z,2.03
2023-07-17T10:25:54.474Z,1.90
2023-07-17T10:28:33.363Z,1.80
2023-07-17T10:31:11.647Z,2.20
2023-07-17T10:33:39.717Z,2.00
2023-07-17T10:36:07.127Z,2.10
2023-07-17T10:38:40.617Z,2.07
2023-07-17T10:41:14.630Z,1.90
2023-07-17T10:44:18.903Z,1.90
2023-07-17T10:46:46.908Z,1.90
2023-07-17T10:49:17.388Z,2.07
2023-07-17T10:51:54.884Z,2.20
2023-07-17T10:54:22.257Z,2.20
2023-07-17T10:56:51.433Z,2.30
2023-07-17T10:59:19.686Z,2.20
2023-07-17T11:01:47.690Z,1.90
2023-07-17T11:04:15.129Z,2.27
2023-07-17T11:06:42.397Z,1.67
2023-07-17T11:09:09.688Z,2.30
2023-07-17T11:11:36.948Z,2.10
2023-07-17T11:14:06.174Z,2.30
2023-07-17T11:16:35.166Z,2.20
2023-07-17T11:19:05.444Z,2.20
2023-07-17T11:21:33.953Z,3.10
2023-07-17T11:24:03.022Z,2.30
2023-07-17T11:26:32.564Z,2.13
2023-07-17T11:29:03.423Z,2.10
2023-07-17T11:31:36.148Z,2.10
2023-07-17T11:34:11.319Z,2.27
2023-07-17T11:36:47.151Z,2.40
2023-07-17T11:39:19.178Z,2.37
2023-07-17T11:41:53.282Z,2.40
2023-07-17T11:44:30.588Z,2.40
2023-07-17T11:47:07.438Z,2.50
2023-07-17T11:49:35.937Z,2.47
2023-07-17T11:52:03.517Z,2.30
2023-07-17T11:54:37.491Z,3.33
2023-07-17T11:57:05.270Z,2.30
2023-07-17T11:59:32.809Z,2.50
2023-07-17T12:02:00.067Z,2.17
2023-07-17T12:04:38.164Z,2.00
2023-07-17T12:07:06.006Z,2.40
2023-07-17T12:09:33.341Z,2.40
2023-07-17T12:12:00.729Z,2.23
2023-07-17T12:14:28.023Z,2.57
2023-07-17T12:16:55.240Z,2.17
2023-07-17T12:19:22.520Z,2.23
2023-07-17T12:21:50.151Z,2.33
2023-07-17T12:24:17.425Z,2.23
2023-07-17T12:26:44.672Z,2.17
2023-07-17T12:29:12.117Z,2.50
2023-07-17T12:31:39.484Z,2.60
2023-07-17T12:34:06.845Z,2.13
2023-07-17T12:36:34.129Z,3.00
2023-07-17T12:39:17.863Z,2.17
2023-07-17T12:41:45.421Z,3.20
2023-07-17T12:44:12.980Z,2.30
2023-07-17T12:46:40.343Z,2.33
2023-07-17T12:49:07.717Z,2.13
2023-07-17T12:51:35.119Z,2.30
2023-07-17T12:54:03.000Z,1.80
2023-07-17T12:56:30.306Z,2.50
2023-07-17T12:58:57.590Z,2.27
2023-07-17T13:01:25.164Z,2.30
2023-07-17T13:03:52.630Z,2.17
2023-07-17T13:06:21.617Z,2.40
2023-07-17T13:08:49.101Z,2.20
2023-07-17T13:11:18.125Z,2.20
2023-07-17T13:13:45.698Z,2.13
2023-07-17T13:16:13.504Z,2.00
2023-07-17T13:18:40.758Z,1.90
2023-07-17T13:21:08.598Z,2.17
2023-07-17T13:23:35.962Z,2.27
2023-07-17T13:26:05.086Z,1.90
2023-07-17T13:28:35.411Z,2.70
2023-07-17T13:31:09.918Z,2.40
2023-07-17T13:33:38.920Z,2.10
2023-07-17T13:36:07.395Z,2.27
2023-07-17T13:38:34.736Z,2.13
2023-07-17T13:41:02.674Z,2.20
2023-07-17T13:43:30.028Z,2.23
2023-07-17T13:45:57.288Z,2.07
2023-07-17T13:48:24.726Z,2.27
2023-07-17T13:50:51.947Z,2.47
2023-07-17T13:53:19.508Z,2.60
2023-07-17T13:55:47.432Z,2.10
2023-07-17T13:58:19.140Z,1.87
2023-07-17T14:00:47.021Z,1.90
2023-07-17T14:03:14.351Z,2.23
2023-07-17T14:05:42.141Z,2.17
2023-07-17T14:08:09.362Z,2.20
2023-07-17T14:10:36.704Z,2.47
2023-07-17T14:13:04.035Z,2.30
2023-07-17T14:15:31.381Z,2.10
2023-07-17T14:17:58.573Z,3.20
2023-07-17T14:20:26.072Z,2.43
2023-07-17T14:22:53.480Z,1.80
2023-07-17T14:25:21.319Z,2.07
2023-07-17T14:27:48.574Z,1.97
2023-07-17T14:30:17.179Z,1.90
2023-07-17T14:32:44.836Z,1.80
2023-07-17T14:35:12.079Z,1.97
2023-07-17T14:37:39.394Z,1.60
2023-07-17T14:40:07.752Z,1.40
2023-07-17T14:42:35.058Z,2.03
2023-07-17T14:45:02.477Z,1.50
2023-07-17T14:47:29.786Z,1.83
2023-07-17T14:49:57.120Z,1.90
2023-07-17T14:52:24.519Z,1.63
2023-07-17T14:54:51.891Z,1.90
2023-07-17T14:57:19.106Z,1.70
2023-07-17T14:59:46.327Z,1.80
2023-07-17T15:02:14.097Z,1.80
2023-07-17T15:04:41.428Z,1.70
2023-07-17T15:07:09.507Z,2.03
2023-07-17T15:09:36.900Z,1.70
2023-07-17T15:12:04.538Z,1.40
2023-07-17T15:14:32.986Z,1.53
2023-07-17T15:17:00.223Z,1.40
2023-07-17T15:19:27.440Z,1.90
2023-07-17T15:21:54.694Z,3.93
2023-07-17T15:24:21.983Z,1.90
2023-07-17T15:26:49.213Z,1.40
2023-07-17T15:29:16.546Z,1.40
2023-07-17T15:31:43.853Z,1.70
2023-07-17T15:34:11.165Z,1.50
2023-07-17T15:36:38.457Z,1.57
2023-07-17T15:39:05.728Z,1.60
2023-07-17T15:41:33.537Z,1.50
2023-07-17T15:44:00.869Z,1.50
2023-07-17T15:46:28.170Z,1.73
2023-07-17T15:48:55.553Z,2.00
2023-07-17T15:51:22.685Z,1.40
2023-07-17T15:53:50.042Z,1.50
2023-07-17T15:56:17.547Z,1.77
2023-07-17T15:58:45.076Z,1.83
2023-07-17T16:01:13.238Z,1.80
2023-07-17T16:03:41.253Z,1.90
2023-07-17T16:06:15.388Z,1.73
2023-07-17T16:08:42.874Z,2.30
2023-07-17T16:11:10.279Z,1.77
2023-07-17T16:13:37.986Z,1.90
2023-07-17T16:16:09.185Z,2.80
2023-07-17T16:18:36.605Z,1.93
2023-07-17T16:21:04.031Z,1.93
2023-07-17T16:23:33.169Z,1.73
2023-07-17T16:26:00.707Z,2.00
2023-07-17T16:28:28.134Z,1.90
2023-07-17T16:30:55.697Z,2.93
2023-07-17T16:33:23.122Z,2.20
2023-07-17T16:35:50.808Z,1.80
2023-07-17T16:38:18.199Z,1.83
2023-07-17T16:40:48.242Z,1.60
2023-07-17T16:43:15.703Z,3.07
2023-07-17T16:45:43.142Z,7.90
2023-07-17T16:48:14.908Z,2.17
2023-07-17T16:50:43.037Z,1.90
2023-07-17T16:53:10.688Z,1.80
2023-07-17T16:55:38.145Z,2.10
2023-07-17T16:58:05.587Z,2.10
2023-07-17T17:00:33.398Z,1.83
2023-07-17T17:03:01.203Z,2.00
2023-07-17T17:05:28.821Z,1.60
2023-07-17T17:07:56.212Z,2.10
2023-07-17T17:10:23.597Z,2.00
2023-07-17T17:12:50.989Z,2.17
2023-07-17T17:15:18.487Z,2.40
2023-07-17T17:17:45.885Z,2.07
2023-07-17T17:20:15.253Z,1.97
2023-07-17T17:22:42.852Z,2.10
2023-07-17T17:25:10.419Z,2.10
2023-07-17T17:27:37.740Z,2.50
2023-07-17T17:30:06.380Z,1.73
2023-07-17T17:32:33.881Z,2.00
2023-07-17T17:35:01.401Z,1.70
2023-07-17T17:37:28.825Z,1.60
2023-07-17T17:39:56.244Z,1.43
2023-07-17T17:42:24.213Z,1.63
2023-07-17T17:44:51.603Z,1.93
2023-07-17T17:47:19.026Z,1.33
2023-07-17T17:49:46.367Z,1.20
2023-07-17T17:52:14.123Z,1.23
2023-07-17T17:54:41.485Z,1.57
2023-07-17T17:57:08.834Z,1.50
2023-07-17T17:59:36.214Z,1.47
2023-07-17T18:02:03.920Z,1.83
2023-07-17T18:04:31.702Z,1.37
2023-07-17T18:07:01.311Z,4.47
2023-07-17T18:09:28.777Z,1.40
2023-07-17T18:11:56.225Z,1.53
2023-07-17T18:14:23.574Z,1.60
2023-07-17T18:16:53.528Z,1.43
2023-07-17T18:19:28.207Z,1.40
2023-07-17T18:21:55.636Z,1.50
2023-07-17T18:24:23.029Z,1.50
2023-07-17T18:26:50.412Z,1.77
2023-07-17T18:29:29.640Z,1.60
2023-07-17T18:31:57.142Z,2.40
2023-07-17T18:34:26.531Z,2.00
2023-07-17T18:36:56.968Z,1.40
2023-07-17T18:39:24.906Z,1.30
2023-07-17T18:41:52.473Z,1.67
2023-07-17T18:44:20.096Z,1.60
2023-07-17T18:46:47.867Z,1.40
2023-07-17T18:49:16.260Z,1.70
2023-07-17T18:51:43.659Z,1.50
2023-07-17T18:54:11.096Z,1.73
2023-07-17T18:56:38.641Z,1.67
2023-07-17T18:59:22.055Z,1.40
2023-07-17T19:01:53.335Z,1.53
2023-07-17T19:04:21.044Z,1.50
2023-07-17T19:06:50.816Z,1.33
2023-07-17T19:09:20.041Z,1.40
2023-07-17T19:11:47.482Z,1.40
2023-07-17T19:14:15.087Z,1.50
2023-07-17T19:16:42.490Z,1.20
2023-07-17T19:19:10.769Z,1.20
2023-07-17T19:21:38.440Z,1.30
2023-07-17T19:24:07.289Z,1.50
2023-07-17T19:26:34.922Z,1.40
2023-07-17T19:29:03.044Z,1.50
2023-07-17T19:31:30.510Z,1.30
2023-07-17T19:33:58.270Z,1.30
2023-07-17T19:36:25.923Z,1.40
2023-07-17T19:38:56.760Z,1.40
2023-07-17T19:41:24.536Z,1.10
2023-07-17T19:43:52.122Z,1.10
2023-07-17T19:46:19.571Z,1.20
2023-07-17T19:48:47.191Z,1.20
2023-07-17T19:51:14.657Z,1.23
2023-07-17T19:53:42.071Z,1.70
2023-07-17T19:56:09.507Z,1.23
2023-07-17T19:58:36.961Z,1.40
2023-07-17T20:01:04.487Z,1.27
2023-07-17T20:03:32.074Z,1.27
2023-07-17T20:05:59.761Z,3.00
2023-07-17T20:08:27.253Z,1.30
2023-07-17T20:10:54.645Z,1.10
2023-07-17T20:13:22.855Z,1.30
2023-07-17T20:15:50.464Z,1.30
2023-07-17T20:18:18.015Z,1.33
2023-07-17T20:20:45.515Z,1.27
2023-07-17T20:23:13.103Z,1.10
2023-07-17T20:25:41.264Z,1.10
2023-07-17T20:28:09.835Z,1.30
2023-07-17T20:30:37.304Z,1.40
2023-07-17T20:33:05.094Z,1.20
2023-07-17T20:35:32.536Z,1.40
2023-07-17T20:38:00.571Z,1.20
2023-07-17T20:40:28.369Z,1.20
2023-07-17T20:42:58.416Z,2.33
2023-07-17T20:45:34.100Z,3.60
2023-07-17T20:48:02.324Z,1.40
2023-07-17T20:50:30.079Z,1.20
2023-07-17T20:52:59.170Z,1.30
2023-07-17T20:55:26.997Z,1.40
2023-07-17T20:57:54.600Z,1.50
2023-07-17T21:00:22.153Z,1.50
2023-07-17T21:02:49.607Z,1.67
2023-07-17T21:05:25.277Z,1.70
2023-07-17T21:07:53.350Z,1.63
2023-07-17T21:10:21.204Z,1.60
2023-07-17T21:12:51.281Z,1.60
2023-07-17T21:15:18.880Z,1.60
2023-07-17T21:17:46.341Z,2.00
2023-07-17T21:20:14.020Z,1.80
2023-07-17T21:22:41.901Z,1.77
2023-07-17T21:25:09.901Z,1.70
2023-07-17T21:27:37.271Z,1.70
2023-07-17T21:30:05.970Z,1.90
2023-07-17T21:32:33.445Z,1.57
2023-07-17T21:35:00.998Z,1.70
2023-07-17T21:37:28.492Z,2.00
2023-07-17T21:39:58.164Z,1.50
2023-07-17T21:42:25.659Z,1.80
2023-07-17T21:44:53.190Z,1.80
2023-07-17T21:47:20.817Z,1.83
2023-07-17T21:49:49.691Z,1.80
2023-07-17T21:52:17.149Z,2.23
2023-07-17T21:54:44.770Z,1.60
2023-07-17T21:57:12.265Z,1.70
2023-07-17T21:59:43.065Z,1.67
2023-07-17T22:02:10.288Z,1.80
2023-07-17T22:04:37.584Z,1.63
2023-07-17T22:07:05.142Z,1.90
2023-07-17T22:09:32.279Z,2.40
2023-07-17T22:11:59.507Z,1.90
2023-07-17T22:14:26.699Z,2.10
2023-07-17T22:16:53.994Z,2.20
2023-07-17T22:19:21.159Z,2.10
2023-07-17T22:21:48.334Z,2.10
2023-07-17T22:24:15.485Z,2.13
2023-07-17T22:26:42.587Z,2.33
2023-07-17T22:29:10.049Z,2.33
2023-07-17T22:31:37.193Z,2.63
2023-07-17T22:34:04.337Z,2.73
2023-07-17T22:36:31.561Z,2.43
2023-07-17T22:38:58.763Z,2.53
2023-07-17T22:41:26.033Z,2.40
2023-07-17T22:43:53.317Z,2.23
2023-07-17T22:46:20.558Z,2.20
2023-07-17T22:48:47.759Z,2.50
2023-07-17T22:51:14.946Z,2.20
2023-07-17T22:53:42.135Z,2.47
2023-07-17T22:56:09.351Z,2.50
2023-07-17T22:58:37.265Z,2.50
2023-07-17T23:01:04.616Z,2.40
2023-07-17T23:03:33.472Z,2.87
2023-07-17T23:06:00.872Z,2.40
2023-07-17T23:08:28.008Z,2.40
2023-07-17T23:10:55.192Z,2.43
2023-07-17T23:13:22.369Z,2.80
2023-07-17T23:15:49.930Z,2.93
2023-07-17T23:18:17.125Z,2.97
2023-07-17T23:20:44.334Z,2.53
2023-07-17T23:23:11.639Z,3.17
2023-07-17T23:25:44.294Z,2.70
2023-07-17T23:28:13.369Z,3.20
2023-07-17T23:30:41.276Z,2.90
2023-07-17T23:33:08.549Z,3.40
2023-07-17T23:35:35.851Z,3.30
2023-07-17T23:38:03.720Z,3.80
2023-07-17T23:40:31.154Z,3.70
2023-07-17T23:42:59.840Z,3.40
2023-07-17T23:45:27.806Z,2.70
2023-07-17T23:47:56.023Z,3.23
2023-07-17T23:50:24.555Z,3.37
2023-07-17T23:52:52.162Z,3.73
2023-07-17T23:55:19.313Z,3.30
2023-07-17T23:57:46.504Z,3.60
